Idlewild, Michigan
Current Conditions -  °F | °C
As of 4:35 PM on Wednesday 17 Dec 2014 (Local Time) from KRQB Reporting Station
Overcast Overcast  
Wind Chill: 17°   Ceiling: 2000
Heat Index: 27°   Visibility: 10mi
Dew Point: 23°   Wind: 9mph
Humidity: 86%   Direction: 280°W
Pressure: 30.07"   Gusts: NA
Location:  43.89°N, 85.8°W
Report Text: KRQB 172135Z AUTO 28008KT 10SM OVC020 M03/M05 A3007 RMK AO2 T10301050
Loading
Personal Weather Stations






























Interactive Weather Map New forecast layout! Learn more

10-Day Weather Forecast

Advertisements
Track Severe Weather on mobile